createdAt,value
2023-03-13T00:01:43.797Z,51.25
2023-03-13T00:04:11.842Z,55.58
2023-03-13T00:06:40.747Z,58.22
2023-03-13T00:09:12.148Z,53.75
2023-03-13T00:11:40.279Z,50.60
2023-03-13T00:14:09.080Z,53.92
2023-03-13T00:16:37.862Z,54.28
2023-03-13T00:19:07.007Z,56.38
2023-03-13T00:21:37.519Z,53.80
2023-03-13T00:24:05.674Z,52.05
2023-03-13T00:26:35.006Z,58.92
2023-03-13T00:29:02.974Z,62.80
2023-03-13T00:31:32.726Z,70.35
2023-03-13T00:34:02.374Z,60.70
2023-03-13T00:36:32.134Z,63.63
2023-03-13T00:39:00.608Z,62.15
2023-03-13T00:41:29.987Z,67.05
2023-03-13T00:43:59.331Z,63.03
2023-03-13T00:46:29.061Z,69.60
2023-03-13T00:48:57.940Z,68.72
2023-03-13T00:51:27.526Z,57.65
2023-03-13T00:53:56.155Z,69.75
2023-03-13T00:56:24.413Z,74.07
2023-03-13T00:58:52.914Z,74.03
2023-03-13T01:01:24.308Z,74.18
2023-03-13T01:03:54.515Z,71.80
2023-03-13T01:06:24.829Z,66.88
2023-03-13T01:08:52.863Z,78.20
2023-03-13T01:11:22.661Z,71.22
2023-03-13T01:13:50.640Z,68.93
2023-03-13T01:16:20.867Z,74.03
2023-03-13T01:18:52.991Z,71.90
2023-03-13T01:21:22.083Z,72.55
2023-03-13T01:23:50.879Z,64.80
2023-03-13T01:26:19.200Z,79.28
2023-03-13T01:28:47.574Z,85.97
2023-03-13T01:31:17.725Z,75.68
2023-03-13T01:33:46.648Z,78.68
2023-03-13T01:36:16.824Z,85.90
2023-03-13T01:38:44.806Z,83.22
2023-03-13T01:41:13.463Z,71.32
2023-03-13T01:43:41.531Z,83.53
2023-03-13T01:46:16.480Z,89.53
2023-03-13T01:48:48.766Z,103.93
2023-03-13T01:51:23.579Z,103.05
2023-03-13T01:53:54.934Z,96.38
2023-03-13T01:56:28.236Z,78.40
2023-03-13T01:58:59.327Z,76.80
2023-03-13T02:01:28.285Z,88.75
2023-03-13T02:03:58.543Z,84.93
2023-03-13T02:06:30.258Z,94.78
2023-03-13T02:09:00.846Z,83.30
2023-03-13T02:11:40.856Z,87.22
2023-03-13T02:14:09.199Z,93.63
2023-03-13T02:16:38.153Z,94.50
2023-03-13T02:19:17.377Z,100.15
2023-03-13T02:21:51.394Z,105.95
2023-03-13T02:24:28.983Z,114.25
2023-03-13T02:26:58.420Z,117.43
2023-03-13T02:29:26.838Z,97.72
2023-03-13T02:31:55.198Z,96.72
2023-03-13T02:34:27.156Z,99.32
2023-03-13T02:36:55.431Z,95.75
2023-03-13T02:39:25.650Z,104.15
2023-03-13T02:41:54.761Z,94.50
2023-03-13T02:44:24.159Z,95.28
2023-03-13T02:46:53.473Z,100.45
2023-03-13T02:49:26.650Z,100.85
2023-03-13T02:51:55.898Z,99.22
2023-03-13T02:54:27.647Z,101.63
2023-03-13T02:56:58.563Z,90.20
2023-03-13T02:59:28.076Z,92.25
2023-03-13T03:01:56.447Z,87.43
2023-03-13T03:04:26.823Z,88.35
2023-03-13T03:06:55.273Z,84.40
2023-03-13T03:09:23.954Z,89.10
2023-03-13T03:11:52.154Z,86.43
2023-03-13T03:14:20.308Z,86.97
2023-03-13T03:16:49.738Z,89.25
2023-03-13T03:19:17.724Z,83.32
2023-03-13T03:21:46.509Z,89.20
2023-03-13T03:24:14.431Z,87.85
2023-03-13T03:26:42.556Z,89.70
2023-03-13T03:29:10.969Z,85.43
2023-03-13T03:31:38.968Z,103.18
2023-03-13T03:34:08.360Z,81.72
2023-03-13T03:36:36.298Z,93.47
2023-03-13T03:39:05.308Z,92.05
2023-03-13T03:41:33.375Z,94.57
2023-03-13T03:44:01.326Z,98.97
2023-03-13T03:46:29.302Z,88.03
2023-03-13T03:48:57.246Z,79.05
2023-03-13T03:51:27.581Z,85.78
2023-03-13T03:53:55.686Z,94.20
2023-03-13T03:56:23.730Z,100.50
2023-03-13T03:58:51.730Z,97.55
2023-03-13T04:01:19.726Z,97.72
2023-03-13T04:03:48.372Z,88.88
2023-03-13T04:06:16.449Z,89.50
2023-03-13T04:08:45.846Z,100.60
2023-03-13T04:11:13.815Z,96.97
2023-03-13T04:13:41.758Z,94.43
2023-03-13T04:16:10.540Z,89.55
2023-03-13T04:18:38.497Z,96.57
2023-03-13T04:21:07.357Z,103.43
2023-03-13T04:23:35.314Z,104.35
2023-03-13T04:26:04.791Z,85.80
2023-03-13T04:28:32.767Z,84.03
2023-03-13T04:31:01.408Z,80.18
2023-03-13T04:33:29.527Z,77.05
2023-03-13T04:35:57.587Z,79.40
2023-03-13T04:38:25.692Z,77.93
2023-03-13T04:40:53.689Z,77.68
2023-03-13T04:43:23.102Z,71.78
2023-03-13T04:45:54.625Z,74.80
2023-03-13T04:48:22.759Z,71.60
2023-03-13T04:50:50.776Z,72.68
2023-03-13T04:53:19.325Z,65.03
2023-03-13T04:55:47.768Z,68.35
2023-03-13T04:58:15.745Z,68.15
2023-03-13T05:00:45.147Z,65.80
2023-03-13T05:03:13.145Z,51.33
2023-03-13T05:05:41.172Z,54.00
2023-03-13T05:08:10.807Z,43.97
2023-03-13T05:10:38.833Z,49.92
2023-03-13T05:13:06.851Z,38.78
2023-03-13T05:15:34.976Z,41.17
2023-03-13T05:18:04.546Z,31.27
2023-03-13T05:20:32.491Z,28.30
2023-03-13T05:23:00.534Z,29.05
2023-03-13T05:25:28.528Z,27.95
2023-03-13T05:27:56.586Z,24.63
2023-03-13T05:30:24.848Z,26.80
2023-03-13T05:32:52.969Z,27.98
2023-03-13T05:35:22.749Z,24.98
2023-03-13T05:37:50.909Z,20.25
2023-03-13T05:40:19.101Z,23.85
2023-03-13T05:42:47.415Z,21.60
2023-03-13T05:45:15.511Z,28.13
2023-03-13T05:47:43.512Z,22.50
2023-03-13T05:50:12.415Z,19.00
2023-03-13T05:52:41.943Z,22.40
2023-03-13T05:55:10.471Z,17.83
2023-03-13T05:57:39.424Z,21.52
2023-03-13T06:00:08.701Z,20.83
2023-03-13T06:02:36.805Z,20.10
2023-03-13T06:05:05.179Z,22.30
2023-03-13T06:07:33.271Z,17.08
2023-03-13T06:10:02.703Z,20.05
2023-03-13T06:12:30.784Z,19.33
2023-03-13T06:14:58.813Z,23.98
2023-03-13T06:17:26.811Z,23.02
2023-03-13T06:19:54.780Z,25.58
2023-03-13T06:22:22.859Z,26.48
2023-03-13T06:24:50.850Z,25.90
2023-03-13T06:27:20.368Z,27.50
2023-03-13T06:29:48.526Z,31.20
2023-03-13T06:32:16.812Z,28.55
2023-03-13T06:34:44.877Z,29.08
2023-03-13T06:37:13.158Z,30.77
2023-03-13T06:39:41.207Z,34.10
2023-03-13T06:42:09.446Z,31.45
2023-03-13T06:44:38.862Z,34.95
2023-03-13T06:47:07.226Z,39.05
2023-03-13T06:49:35.355Z,38.42
2023-03-13T06:52:03.306Z,36.13
2023-03-13T06:54:31.693Z,37.20
2023-03-13T06:56:59.715Z,39.53
2023-03-13T06:59:27.920Z,37.47
2023-03-13T07:01:57.352Z,36.70
2023-03-13T07:04:25.330Z,42.40
2023-03-13T07:06:53.404Z,40.83
2023-03-13T07:09:21.435Z,41.00
2023-03-13T07:11:49.446Z,40.45
2023-03-13T07:14:17.964Z,45.63
2023-03-13T07:16:46.749Z,39.63
2023-03-13T07:19:16.976Z,45.80
2023-03-13T07:21:45.092Z,45.35
2023-03-13T07:24:13.296Z,44.88
2023-03-13T07:26:51.243Z,41.13
2023-03-13T07:29:26.259Z,40.25
2023-03-13T07:31:54.370Z,34.70
2023-03-13T07:34:23.857Z,39.08
2023-03-13T07:36:52.024Z,37.22
2023-03-13T07:39:20.196Z,38.35
2023-03-13T07:41:48.253Z,36.05
2023-03-13T07:44:16.278Z,36.90
2023-03-13T07:46:44.366Z,31.13
2023-03-13T07:49:12.443Z,33.40
2023-03-13T07:51:44.226Z,28.65
2023-03-13T07:54:12.652Z,29.92
2023-03-13T07:56:41.472Z,29.05
2023-03-13T07:59:09.736Z,27.20
2023-03-13T08:01:38.207Z,23.15
2023-03-13T08:04:06.725Z,24.73
2023-03-13T08:06:36.978Z,22.13
2023-03-13T08:09:06.782Z,22.98
2023-03-13T08:11:34.855Z,23.05
2023-03-13T08:14:03.115Z,22.00
2023-03-13T08:16:34.520Z,23.50
2023-03-13T08:19:05.838Z,19.20
2023-03-13T08:21:35.722Z,21.98
2023-03-13T08:24:07.291Z,19.98
2023-03-13T08:26:36.784Z,17.45
2023-03-13T08:29:07.839Z,15.45
2023-03-13T08:31:38.050Z,15.13
2023-03-13T08:34:06.216Z,15.43
2023-03-13T08:36:35.844Z,14.65
2023-03-13T08:39:10.981Z,16.27
2023-03-13T08:41:40.728Z,12.13
2023-03-13T08:44:11.876Z,16.02
2023-03-13T08:46:40.489Z,9.85
2023-03-13T08:49:09.791Z,15.27
2023-03-13T08:51:38.501Z,15.55
2023-03-13T08:54:08.497Z,11.27
2023-03-13T08:56:36.864Z,15.90
2023-03-13T08:59:07.562Z,14.60
2023-03-13T09:01:37.413Z,14.68
2023-03-13T09:04:06.487Z,12.25
2023-03-13T09:06:34.945Z,16.27
2023-03-13T09:09:03.283Z,15.75
2023-03-13T09:11:33.286Z,14.10
2023-03-13T09:14:01.342Z,10.30
2023-03-13T09:16:31.845Z,10.75
2023-03-13T09:19:00.864Z,14.95
2023-03-13T09:21:30.626Z,16.52
2023-03-13T09:23:59.002Z,12.82
2023-03-13T09:26:27.813Z,10.85
2023-03-13T09:28:57.913Z,10.80
2023-03-13T09:31:27.730Z,9.52
2023-03-13T09:33:56.369Z,11.23
2023-03-13T09:36:25.002Z,9.75
2023-03-13T09:38:54.456Z,9.32
2023-03-13T09:41:26.866Z,8.38
2023-03-13T09:44:01.558Z,10.30
2023-03-13T09:46:35.111Z,8.20
2023-03-13T09:49:06.860Z,9.52
2023-03-13T09:51:37.316Z,6.70
2023-03-13T09:54:09.328Z,6.32
2023-03-13T09:56:43.452Z,11.15
2023-03-13T09:59:19.745Z,5.70
2023-03-13T10:01:50.352Z,7.18
2023-03-13T10:04:30.760Z,8.95
2023-03-13T10:06:58.970Z,6.63
2023-03-13T10:09:30.954Z,9.88
2023-03-13T10:12:12.023Z,11.45
2023-03-13T10:14:45.040Z,6.75
2023-03-13T10:17:27.396Z,6.63
2023-03-13T10:20:01.213Z,8.70
2023-03-13T10:22:32.397Z,7.18
2023-03-13T10:25:04.421Z,10.85
2023-03-13T10:27:32.420Z,12.38
2023-03-13T10:30:01.833Z,14.68
2023-03-13T10:32:29.980Z,11.75
2023-03-13T10:35:00.435Z,9.50
2023-03-13T10:37:30.191Z,12.73
2023-03-13T10:40:15.492Z,14.60
2023-03-13T10:42:46.483Z,12.98
2023-03-13T10:45:19.674Z,13.52
2023-03-13T10:47:54.749Z,10.65
2023-03-13T10:50:25.730Z,10.93
2023-03-13T10:52:55.128Z,15.52
2023-03-13T10:55:25.164Z,13.93
2023-03-13T10:58:00.428Z,13.18
2023-03-13T11:00:38.794Z,10.70
2023-03-13T11:03:14.833Z,14.95
2023-03-13T11:05:44.467Z,11.77
2023-03-13T11:08:19.951Z,13.43
2023-03-13T11:11:02.300Z,14.98
2023-03-13T11:13:37.779Z,11.57
2023-03-13T11:16:19.334Z,18.95
2023-03-13T11:19:10.207Z,14.77
2023-03-13T11:21:45.693Z,21.58
2023-03-13T11:24:20.709Z,16.17
2023-03-13T11:27:04.596Z,17.92
2023-03-13T11:29:43.386Z,16.65
2023-03-13T11:32:24.105Z,17.33
2023-03-13T11:34:56.346Z,16.52
2023-03-13T11:40:00.911Z,21.92
2023-03-13T11:42:45.881Z,20.10
2023-03-13T11:45:24.825Z,19.83
2023-03-13T11:47:59.570Z,18.95
2023-03-13T11:50:48.321Z,16.05
2023-03-13T11:53:30.392Z,21.90
2023-03-13T11:56:07.732Z,20.90
2023-03-13T11:58:49.786Z,21.50
2023-03-13T12:01:19.682Z,19.20
2023-03-13T12:03:59.726Z,15.27
2023-03-13T12:06:32.977Z,22.60
2023-03-13T12:09:07.810Z,21.80
2023-03-13T12:11:43.881Z,15.63
2023-03-13T12:14:16.189Z,20.30
2023-03-13T12:19:18.979Z,20.52
2023-03-13T12:21:53.385Z,21.25
2023-03-13T12:24:27.873Z,22.50
2023-03-13T12:27:00.350Z,22.33
2023-03-13T12:29:46.468Z,18.98
2023-03-13T12:32:19.865Z,21.40
2023-03-13T12:35:01.916Z,19.75
2023-03-13T12:37:40.469Z,21.42
2023-03-13T12:40:17.308Z,21.35
2023-03-13T12:42:52.375Z,17.55
2023-03-13T12:45:24.078Z,21.00
2023-03-13T12:48:15.325Z,22.83
2023-03-13T12:50:59.977Z,18.65
2023-03-13T12:54:21.831Z,15.82
2023-03-13T12:57:06.130Z,22.35
2023-03-13T12:59:38.135Z,20.17
2023-03-13T13:02:16.338Z,22.65
2023-03-13T13:04:47.519Z,25.38
2023-03-13T13:07:27.585Z,20.52
2023-03-13T13:10:18.558Z,20.35
2023-03-13T13:12:48.377Z,19.95
2023-03-13T13:15:21.077Z,23.58
2023-03-13T13:18:06.863Z,19.20
2023-03-13T13:20:49.914Z,22.10
2023-03-13T13:23:34.962Z,20.77
2023-03-13T13:26:48.993Z,25.05
2023-03-13T13:29:56.633Z,20.90
2023-03-13T13:32:42.876Z,23.17
2023-03-13T13:35:27.494Z,21.30
2023-03-13T13:38:40.415Z,22.83
2023-03-13T13:41:38.217Z,19.63
2023-03-13T13:44:27.872Z,24.40
2023-03-13T13:46:58.634Z,21.30
2023-03-13T13:49:56.400Z,25.27
2023-03-13T13:52:39.989Z,18.55
2023-03-13T13:55:43.196Z,22.30
2023-03-13T13:58:19.197Z,21.52
2023-03-13T14:00:53.157Z,22.30
2023-03-13T14:03:24.100Z,22.42
2023-03-13T14:05:55.755Z,16.30
2023-03-13T14:08:29.792Z,18.10
2023-03-13T14:11:11.028Z,21.15
2023-03-13T14:13:40.933Z,16.88
2023-03-13T14:16:24.547Z,16.33
2023-03-13T14:18:54.003Z,17.80
2023-03-13T14:21:24.188Z,18.38
2023-03-13T14:23:52.825Z,19.58
2023-03-13T14:26:23.246Z,17.17
2023-03-13T14:28:56.011Z,16.50
2023-03-13T14:31:27.630Z,18.30
2023-03-13T14:33:57.343Z,18.23
2023-03-13T14:36:25.726Z,14.45
2023-03-13T14:38:55.960Z,21.63
2023-03-13T14:41:31.396Z,17.13
2023-03-13T14:44:14.875Z,15.35
2023-03-13T14:46:44.900Z,20.55
2023-03-13T14:49:19.258Z,15.48
2023-03-13T14:51:50.560Z,16.85
2023-03-13T14:54:30.930Z,16.85
2023-03-13T14:57:17.014Z,21.88
2023-03-13T14:59:46.522Z,18.10
2023-03-13T15:02:23.308Z,18.38
2023-03-13T15:05:01.811Z,17.02
2023-03-13T15:07:38.402Z,19.08
2023-03-13T15:10:20.939Z,18.27
2023-03-13T15:12:49.878Z,17.25
2023-03-13T15:15:20.012Z,16.35
2023-03-13T15:17:48.379Z,17.02
2023-03-13T15:20:17.530Z,20.65
2023-03-13T15:22:47.215Z,16.05
2023-03-13T15:25:17.875Z,17.42
2023-03-13T15:27:45.900Z,16.70
2023-03-13T15:30:16.805Z,18.20
2023-03-13T15:32:47.003Z,14.75
2023-03-13T15:35:25.225Z,16.88
2023-03-13T15:37:53.464Z,20.58
2023-03-13T15:40:21.850Z,19.63
2023-03-13T15:42:49.819Z,18.33
2023-03-13T15:45:18.007Z,15.85
2023-03-13T15:47:48.014Z,17.88
2023-03-13T15:50:19.495Z,20.20
2023-03-13T15:52:47.760Z,15.60
2023-03-13T15:55:16.297Z,17.67
2023-03-13T15:57:47.337Z,22.65
2023-03-13T16:00:20.781Z,16.27
2023-03-13T16:02:50.556Z,16.60
2023-03-13T16:05:19.792Z,21.45
2023-03-13T16:07:48.032Z,19.05
2023-03-13T16:10:19.353Z,19.58
2023-03-13T16:12:47.623Z,20.80
2023-03-13T16:15:15.745Z,21.95
2023-03-13T16:17:44.002Z,20.15
2023-03-13T16:20:18.244Z,24.15
2023-03-13T16:22:46.537Z,24.50
2023-03-13T16:25:15.924Z,20.73
2023-03-13T16:27:44.242Z,26.35
2023-03-13T16:30:18.875Z,25.65
2023-03-13T16:32:47.524Z,30.30
2023-03-13T16:35:17.810Z,21.83
2023-03-13T16:37:45.974Z,22.98
2023-03-13T16:40:19.692Z,21.08
2023-03-13T16:42:47.992Z,26.75
2023-03-13T16:45:16.623Z,30.48
2023-03-13T16:47:45.997Z,23.27
2023-03-13T16:50:34.928Z,28.40
2023-03-13T16:53:03.281Z,23.55
2023-03-13T16:55:36.733Z,27.15
2023-03-13T16:58:06.118Z,30.10
2023-03-13T17:00:35.009Z,25.95
2023-03-13T17:03:03.233Z,24.23
2023-03-13T17:05:33.062Z,23.25
2023-03-13T17:08:01.112Z,26.02
2023-03-13T17:10:31.122Z,28.92
2023-03-13T17:12:59.116Z,25.90
2023-03-13T17:15:28.070Z,25.27
2023-03-13T17:17:56.568Z,28.27
2023-03-13T17:20:27.487Z,28.90
2023-03-13T17:22:57.320Z,27.45
2023-03-13T17:25:25.930Z,26.33
2023-03-13T17:27:55.558Z,34.80
2023-03-13T17:30:26.464Z,24.75
2023-03-13T17:32:54.783Z,25.73
2023-03-13T17:35:23.185Z,27.25
2023-03-13T17:37:51.697Z,25.33
2023-03-13T17:40:22.831Z,30.48
2023-03-13T17:42:51.348Z,27.75
2023-03-13T17:45:39.878Z,28.38
2023-03-13T17:48:14.136Z,30.25
2023-03-13T17:50:42.264Z,28.58
2023-03-13T17:53:10.316Z,25.98
2023-03-13T17:55:39.664Z,29.13
2023-03-13T17:58:07.677Z,29.08
2023-03-13T18:00:35.785Z,33.15
2023-03-13T18:03:03.890Z,29.33
2023-03-13T18:05:31.974Z,31.00
2023-03-13T18:08:00.059Z,28.55
2023-03-13T18:10:30.176Z,23.90
2023-03-13T18:12:59.688Z,29.60
2023-03-13T18:15:28.275Z,26.77
2023-03-13T18:17:58.705Z,27.30
2023-03-13T18:20:29.110Z,28.58
2023-03-13T18:23:00.304Z,24.98
2023-03-13T18:25:29.019Z,25.53
2023-03-13T18:27:57.315Z,34.38
2023-03-13T18:30:27.584Z,29.40
2023-03-13T18:32:55.853Z,28.10
2023-03-13T18:35:23.929Z,24.75
2023-03-13T18:37:51.907Z,24.73
2023-03-13T18:40:22.391Z,26.02
2023-03-13T18:42:50.772Z,32.53
2023-03-13T18:45:21.249Z,24.77
2023-03-13T18:47:50.695Z,31.48
2023-03-13T18:50:26.194Z,31.08
2023-03-13T18:52:55.324Z,29.65
2023-03-13T18:55:23.801Z,33.50
2023-03-13T18:57:51.955Z,34.83
2023-03-13T19:00:21.740Z,29.30
2023-03-13T19:02:51.340Z,30.75
2023-03-13T19:05:20.161Z,29.45
2023-03-13T19:07:48.660Z,27.48
2023-03-13T19:10:20.528Z,31.90
2023-03-13T19:12:49.039Z,33.05
2023-03-13T19:15:17.389Z,29.65
2023-03-13T19:17:45.776Z,33.58
2023-03-13T19:20:18.692Z,25.38
2023-03-13T19:22:47.094Z,35.75
2023-03-13T19:25:17.074Z,26.58
2023-03-13T19:27:45.438Z,30.63
2023-03-13T19:30:18.084Z,31.27
2023-03-13T19:32:46.118Z,24.42
2023-03-13T19:35:18.723Z,35.33
2023-03-13T19:37:46.811Z,33.80
2023-03-13T19:40:20.134Z,23.52
2023-03-13T19:42:48.185Z,25.88
2023-03-13T19:45:19.622Z,35.97
2023-03-13T19:47:47.693Z,28.47
2023-03-13T19:50:22.129Z,26.50
2023-03-13T19:52:50.186Z,26.10
2023-03-13T19:55:18.300Z,26.42
2023-03-13T19:57:46.373Z,31.80
2023-03-13T20:00:21.177Z,22.58
2023-03-13T20:02:49.310Z,27.38
2023-03-13T20:05:17.467Z,31.63
2023-03-13T20:07:48.183Z,33.78
2023-03-13T20:10:16.282Z,25.98
2023-03-13T20:12:44.233Z,27.33
2023-03-13T20:15:12.799Z,29.15
2023-03-13T20:17:40.751Z,27.25
2023-03-13T20:20:10.915Z,22.55
2023-03-13T20:22:38.848Z,26.92
2023-03-13T20:25:09.275Z,27.35
2023-03-13T20:27:37.309Z,22.75
2023-03-13T20:30:06.192Z,33.17
2023-03-13T20:32:34.199Z,28.42
2023-03-13T20:35:02.282Z,23.08
2023-03-13T20:37:30.337Z,25.30
2023-03-13T20:39:58.352Z,22.77
2023-03-13T20:42:28.169Z,29.55
2023-03-13T20:44:56.319Z,28.33
2023-03-13T20:47:24.309Z,25.90
2023-03-13T20:49:52.257Z,26.85
2023-03-13T20:52:20.292Z,25.33
2023-03-13T20:54:48.242Z,26.40
2023-03-13T20:57:19.473Z,23.52
2023-03-13T20:59:48.874Z,23.90
2023-03-13T21:02:16.941Z,33.50
2023-03-13T21:04:45.242Z,20.83
2023-03-13T21:07:13.248Z,24.95
2023-03-13T21:09:41.224Z,24.30
2023-03-13T21:12:10.354Z,30.85
2023-03-13T21:14:38.295Z,25.73
2023-03-13T21:17:11.160Z,28.35
2023-03-13T21:19:39.091Z,23.10
2023-03-13T21:22:08.201Z,25.30
2023-03-13T21:24:36.186Z,25.98
2023-03-13T21:27:04.276Z,23.45
2023-03-13T21:29:32.378Z,27.80
2023-03-13T21:32:00.317Z,27.65
2023-03-13T21:34:29.689Z,23.65
2023-03-13T21:36:57.734Z,24.58
2023-03-13T21:39:25.732Z,27.95
2023-03-13T21:41:58.447Z,28.05
2023-03-13T21:44:27.409Z,32.42
2023-03-13T21:46:55.518Z,26.20
2023-03-13T21:49:23.619Z,23.38
2023-03-13T21:51:52.978Z,24.65
2023-03-13T21:54:21.074Z,27.23
2023-03-13T21:56:49.044Z,23.17
2023-03-13T21:59:17.080Z,26.55
2023-03-13T22:01:45.251Z,27.92
2023-03-13T22:04:13.254Z,21.02
2023-03-13T22:06:41.388Z,25.00
2023-03-13T22:09:10.702Z,23.60
2023-03-13T22:11:38.697Z,22.45
2023-03-13T22:14:06.699Z,22.98
2023-03-13T22:16:34.725Z,24.48
2023-03-13T22:19:02.691Z,29.27
2023-03-13T22:21:30.702Z,22.63
2023-03-13T22:23:58.708Z,26.70
2023-03-13T22:26:28.099Z,20.23
2023-03-13T22:28:56.148Z,23.63
2023-03-13T22:31:24.107Z,18.00
2023-03-13T22:33:52.282Z,20.27
2023-03-13T22:36:20.430Z,22.63
2023-03-13T22:38:48.435Z,23.88
2023-03-13T22:41:18.153Z,22.27
2023-03-13T22:43:47.524Z,23.90
2023-03-13T22:46:15.959Z,15.68
2023-03-13T22:48:44.031Z,23.58
2023-03-13T22:51:13.835Z,22.38
2023-03-13T22:53:43.263Z,17.83
2023-03-13T22:56:13.053Z,21.17
2023-03-13T22:58:42.232Z,16.27
2023-03-13T23:01:13.993Z,16.80
2023-03-13T23:03:42.149Z,18.63
2023-03-13T23:06:15.853Z,17.63
2023-03-13T23:08:44.077Z,16.88
2023-03-13T23:11:12.706Z,17.90
2023-03-13T23:13:40.790Z,18.92
2023-03-13T23:16:12.701Z,14.18
2023-03-13T23:18:41.857Z,12.77
2023-03-13T23:21:11.820Z,11.98
2023-03-13T23:23:40.535Z,12.15
2023-03-13T23:26:10.577Z,17.33
2023-03-13T23:28:39.697Z,15.30
2023-03-13T23:31:14.128Z,12.38
2023-03-13T23:33:42.489Z,15.57
2023-03-13T23:36:15.335Z,13.80
2023-03-13T23:38:43.842Z,16.48
2023-03-13T23:41:13.980Z,12.57
2023-03-13T23:43:42.665Z,14.70
2023-03-13T23:46:17.896Z,12.88
2023-03-13T23:48:46.145Z,18.27
2023-03-13T23:51:14.560Z,13.65
2023-03-13T23:53:44.287Z,13.00
2023-03-13T23:56:12.922Z,18.02
2023-03-13T23:58:40.921Z,13.05
